Time;durP1;ratioP1;P1;durP2;ratioP2;P2;SDS_P1;SDS_P2;PMS_P1;PMS_P2;Temp;Humidity;BMP_temperature;BMP_pressure;BME280_temperature;BME280_humidity;BME280_pressure;Samples;Min_cycle;Max_cycle;Signal;HPM_P1;HPM_P2
2022/05/14 00:01:01;;;;;;;6.82;5.22;;;;;;;15.27;84.26;93112.91;5071595;28;20056;-77
2022/05/14 00:03:30;;;;;;;7.35;6.07;;;;;;;15.28;83.48;93109.31;5069634;28;20044;-77
2022/05/14 00:05:59;;;;;;;6.88;5.50;;;;;;;15.32;83.55;93115.56;5050229;28;20052;-77
2022/05/14 00:08:26;;;;;;;7.32;5.25;;;;;;;15.32;83.05;93107.81;5050096;28;20049;-77
2022/05/14 00:13:39;;;;;;;7.10;5.53;;;;;;;15.21;83.51;93109.50;5050047;28;20060;-77
2022/05/14 00:16:07;;;;;;;6.57;5.45;;;;;;;15.18;84.84;93101.44;5050018;28;20877;-76
2022/05/14 00:18:35;;;;;;;7.40;5.60;;;;;;;14.93;86.31;93069.84;5049993;28;20055;-76
2022/05/14 00:21:02;;;;;;;8.88;6.13;;;;;;;15.07;85.48;93100.53;5050273;28;20045;-76
2022/05/14 00:23:30;;;;;;;9.55;5.28;;;;;;;14.95;86.18;93095.47;5049879;28;20140;-76
2022/05/14 00:25:57;;;;;;;7.70;5.47;;;;;;;14.92;86.00;93098.53;5050047;28;20099;-77
2022/05/14 00:28:24;;;;;;;6.72;5.47;;;;;;;14.85;86.92;93100.50;5049715;28;20048;-76
2022/05/14 00:30:52;;;;;;;8.13;5.40;;;;;;;14.75;88.09;93091.59;5049768;28;20048;-77
2022/05/14 00:33:19;;;;;;;6.63;4.90;;;;;;;14.72;88.50;93084.28;5049690;28;20056;-76
2022/05/14 00:35:46;;;;;;;7.57;6.55;;;;;;;14.63;89.75;93083.91;5049512;28;20532;-77
2022/05/14 00:38:13;;;;;;;8.43;5.40;;;;;;;14.60;89.75;93089.56;5049870;28;20049;-76
2022/05/14 00:40:43;;;;;;;7.30;6.45;;;;;;;14.52;90.52;93089.94;5049782;28;20052;-76
2022/05/14 00:43:11;;;;;;;6.50;5.63;;;;;;;14.37;92.27;93088.72;5049406;28;20053;-76
2022/05/14 00:45:40;;;;;;;7.97;6.13;;;;;;;14.24;92.51;93079.47;5049434;28;20416;-77
2022/05/14 00:48:12;;;;;;;8.48;6.10;;;;;;;14.36;91.07;93092.31;5049833;28;20059;-77
2022/05/14 00:50:44;;;;;;;7.88;5.93;;;;;;;14.36;91.42;93088.94;5049409;28;20492;-77
2022/05/14 00:53:16;;;;;;;7.53;5.65;;;;;;;14.30;93.85;93085.50;5049118;28;20053;-77
2022/05/14 00:55:45;;;;;;;7.43;5.82;;;;;;;14.18;93.13;93075.25;5049573;28;20049;-78
2022/05/14 00:58:16;;;;;;;7.18;5.85;;;;;;;14.25;90.90;93075.88;5049624;28;20057;-77
2022/05/14 01:00:42;;;;;;;7.97;6.15;;;;;;;14.29;91.00;93081.34;5049652;28;20055;-77
2022/05/14 01:03:11;;;;;;;8.85;6.25;;;;;;;14.30;90.69;93088.06;5049693;28;20396;-77
2022/05/14 01:05:38;;;;;;;8.88;6.30;;;;;;;14.28;91.01;93079.78;5048906;28;20420;-77
2022/05/14 01:08:06;;;;;;;6.55;5.65;;;;;;;14.32;90.22;93087.84;5049588;28;20064;-78
2022/05/14 01:10:40;;;;;;;10.15;5.85;;;;;;;14.12;90.08;93058.13;5049511;28;20103;-78
2022/05/14 01:13:07;;;;;;;8.32;5.97;;;;;;;14.23;89.42;93075.34;5049249;28;20869;-78
2022/05/14 01:15:48;;;;;;;6.60;5.90;;;;;;;14.24;88.38;93083.84;5049352;28;20416;-77
2022/05/14 01:18:17;;;;;;;6.72;5.75;;;;;;;14.17;88.87;93086.63;5049407;28;20053;-78
2022/05/14 01:20:50;;;;;;;9.55;5.85;;;;;;;14.11;88.87;93080.56;5049595;28;20068;-77
2022/05/14 01:23:28;;;;;;;9.07;5.50;;;;;;;14.04;89.30;93067.03;5049290;28;20048;-78
2022/05/14 01:26:29;;;;;;;8.60;6.07;;;;;;;13.99;88.77;93072.88;5049306;28;20748;-77
2022/05/14 01:28:57;;;;;;;8.00;6.07;;;;;;;13.94;89.69;93083.16;5048954;28;20085;-78
2022/05/14 01:31:25;;;;;;;7.72;6.18;;;;;;;13.90;89.93;93077.66;5049311;28;20072;-77
2022/05/14 01:33:52;;;;;;;8.30;6.50;;;;;;;13.84;90.62;93077.81;5049473;28;20386;-78
2022/05/14 01:36:18;;;;;;;9.55;6.63;;;;;;;13.80;90.92;93077.47;5048836;28;20064;-78
2022/05/14 01:38:46;;;;;;;12.20;6.22;;;;;;;13.75;91.61;93080.75;5049020;28;20047;-77
2022/05/14 01:41:14;;;;;;;8.90;6.30;;;;;;;13.69;91.01;93078.31;5048947;28;20676;-77
2022/05/14 01:43:41;;;;;;;8.10;6.03;;;;;;;13.66;91.42;93065.88;5049219;28;20056;-78
2022/05/14 01:46:09;;;;;;;8.82;6.45;;;;;;;13.53;91.38;93056.63;5049326;28;20049;-78
2022/05/14 01:48:36;;;;;;;10.00;6.85;;;;;;;13.51;92.91;93046.53;5049106;28;20053;-78
2022/05/14 01:51:03;;;;;;;9.65;6.75;;;;;;;13.35;93.43;93042.88;5048757;28;20512;-78
2022/05/14 01:53:31;;;;;;;9.93;7.00;;;;;;;13.52;93.35;93062.81;5049198;28;20045;-77
2022/05/14 01:55:58;;;;;;;8.18;6.63;;;;;;;13.48;92.27;93065.06;5048660;28;20049;-77
2022/05/14 01:58:38;;;;;;;8.30;6.28;;;;;;;13.52;91.51;93065.38;5049197;28;20404;-77
2022/05/14 02:01:14;;;;;;;10.00;5.97;;;;;;;13.41;92.09;93059.22;5049093;28;20049;-77
2022/05/14 02:03:44;;;;;;;8.82;6.20;;;;;;;13.34;93.91;93054.22;5049844;28;20416;-77
2022/05/14 02:06:11;;;;;;;6.63;5.65;;;;;;;13.33;95.09;93062.97;5052796;28;20045;-78
2022/05/14 02:08:38;;;;;;;7.88;5.90;;;;;;;13.25;95.33;93064.13;5052734;28;20048;-77
2022/05/14 02:11:07;;;;;;;8.30;6.10;;;;;;;13.12;95.90;93056.63;5052703;28;20405;-77
2022/05/14 02:13:36;;;;;;;8.02;5.90;;;;;;;13.19;96.89;93054.72;5052933;28;20449;-77
2022/05/14 02:16:03;;;;;;;7.40;6.10;;;;;;;13.18;96.27;93063.44;5052175;28;20519;-77
2022/05/14 02:18:30;;;;;;;8.90;6.32;;;;;;;13.19;96.58;93062.47;5052600;28;20052;-77
2022/05/14 02:20:57;;;;;;;7.15;5.68;;;;;;;13.20;95.52;93074.34;5052421;28;20072;-78
2022/05/14 02:23:24;;;;;;;8.73;6.63;;;;;;;13.16;98.48;93063.69;5052415;28;20045;-78
2022/05/14 02:25:51;;;;;;;9.00;6.55;;;;;;;13.16;96.46;93065.47;5052319;28;20550;-78
2022/05/14 02:28:18;;;;;;;9.32;6.80;;;;;;;13.11;96.67;93063.59;5052175;28;20067;-77
2022/05/14 02:30:47;;;;;;;9.95;6.47;;;;;;;13.07;96.61;93070.22;5052152;28;20052;-77
2022/05/14 02:33:14;;;;;;;7.97;6.35;;;;;;;13.06;95.85;93066.84;5052267;28;20408;-77
2022/05/14 02:35:41;;;;;;;8.35;6.57;;;;;;;12.98;96.71;93050.94;5052240;28;20056;-77
2022/05/14 02:38:08;;;;;;;9.00;6.78;;;;;;;13.01;96.50;93068.56;5051881;28;20602;-78
2022/05/14 02:40:35;;;;;;;7.97;6.10;;;;;;;12.97;95.95;93060.50;5052031;28;20057;-78
2022/05/14 02:43:02;;;;;;;8.30;6.45;;;;;;;12.95;95.59;93068.44;5051877;28;20045;-77
2022/05/14 02:45:29;;;;;;;6.88;6.13;;;;;;;12.95;94.18;93067.66;5051811;28;20072;-77
2022/05/14 02:47:57;;;;;;;8.32;5.80;;;;;;;12.96;93.06;93070.00;5051633;28;20607;-78
2022/05/14 02:50:24;;;;;;;10.00;5.75;;;;;;;12.91;93.75;93076.88;5051756;28;20511;-78
2022/05/14 02:52:51;;;;;;;7.95;6.15;;;;;;;12.82;94.33;93076.41;5051728;28;20044;-78
2022/05/14 02:55:19;;;;;;;9.82;5.88;;;;;;;12.78;94.18;93072.75;5051494;28;20045;-78
2022/05/14 02:57:46;;;;;;;8.32;6.45;;;;;;;12.72;94.11;93076.22;5051790;28;20067;-78
2022/05/14 03:00:16;;;;;;;8.68;6.20;;;;;;;12.60;94.82;93071.06;5051451;28;20048;-78
2022/05/14 03:02:44;;;;;;;7.20;6.25;;;;;;;12.55;95.81;93075.09;5051746;28;20137;-77
2022/05/14 03:05:13;;;;;;;7.57;6.00;;;;;;;12.40;96.09;93064.47;5051592;28;20408;-77
2022/05/14 03:07:40;;;;;;;7.43;6.38;;;;;;;12.55;95.85;93080.25;5051545;28;20119;-77
2022/05/14 03:10:07;;;;;;;7.70;6.47;;;;;;;12.38;96.34;93072.44;5051452;28;20067;-78
2022/05/14 03:12:34;;;;;;;8.68;6.00;;;;;;;12.50;96.38;93084.53;5051559;28;20076;-77
2022/05/14 03:15:02;;;;;;;9.00;6.53;;;;;;;12.35;96.93;93061.78;5050812;28;20045;-78
2022/05/14 03:17:29;;;;;;;12.65;6.68;;;;;;;12.41;97.67;93087.44;5051293;28;20061;-78
2022/05/14 03:19:55;;;;;;;9.50;7.10;;;;;;;12.41;97.72;93089.22;5051227;28;20056;-78
2022/05/14 03:22:24;;;;;;;10.20;7.55;;;;;;;12.41;98.09;93084.09;5051425;28;20393;-78
2022/05/14 03:24:51;;;;;;;11.10;8.25;;;;;;;12.38;98.30;93087.09;5051354;28;20044;-78
2022/05/14 03:27:17;;;;;;;13.07;8.98;;;;;;;12.31;97.81;93074.31;5051115;28;20053;-78
2022/05/14 03:29:44;;;;;;;12.00;7.97;;;;;;;12.47;97.80;93090.91;5050984;28;20033;-78
2022/05/14 03:32:11;;;;;;;14.20;8.80;;;;;;;12.52;97.28;93085.88;5051168;28;20071;-78
2022/05/14 03:34:38;;;;;;;10.07;7.90;;;;;;;12.60;97.63;93092.47;5050724;28;20123;-78
2022/05/14 03:37:05;;;;;;;13.55;8.00;;;;;;;12.60;96.40;93079.59;5051001;28;20063;-78
2022/05/14 03:39:33;;;;;;;8.00;6.60;;;;;;;12.66;96.32;93075.31;5051041;28;20056;-78
2022/05/14 03:42:00;;;;;;;14.60;7.88;;;;;;;12.79;98.85;93089.78;5050672;28;20041;-80
2022/05/14 03:44:27;;;;;;;10.32;6.75;;;;;;;12.85;98.63;93085.50;5050698;28;20167;-78
2022/05/14 03:46:54;;;;;;;8.13;6.20;;;;;;;12.94;97.12;93097.81;5050613;28;20412;-78
2022/05/14 03:49:21;;;;;;;10.68;7.05;;;;;;;12.98;96.53;93097.34;5050701;28;20048;-80
2022/05/14 03:51:48;;;;;;;7.88;6.05;;;;;;;13.05;95.51;93096.22;5050557;28;20052;-77
2022/05/14 03:54:15;;;;;;;8.40;6.28;;;;;;;13.12;96.47;93093.53;5050856;28;20051;-77
2022/05/14 03:56:43;;;;;;;11.52;6.97;;;;;;;13.21;95.29;93094.75;5050620;28;20416;-77
2022/05/14 03:59:10;;;;;;;10.77;6.43;;;;;;;13.29;93.66;93090.25;5058217;28;20044;-77
2022/05/14 04:01:37;;;;;;;11.25;7.05;;;;;;;13.31;93.40;93086.41;5070267;28;20052;-77
2022/05/14 04:04:05;;;;;;;9.88;5.85;;;;;;;13.44;92.72;93107.78;5069706;28;20052;-76
2022/05/14 04:06:32;;;;;;;10.75;6.60;;;;;;;13.45;92.80;93110.16;5070383;28;20059;-77
2022/05/14 04:08:59;;;;;;;12.32;6.32;;;;;;;13.41;93.80;93111.63;5068228;28;20048;-76
2022/05/14 04:11:27;;;;;;;9.90;7.10;;;;;;;13.39;94.46;93108.50;5064255;28;20076;-76
2022/05/14 04:13:57;;;;;;;10.70;6.50;;;;;;;13.33;93.94;93096.50;5058912;28;20074;-77
2022/05/14 04:16:24;;;;;;;10.90;6.78;;;;;;;13.29;95.47;93098.75;5070053;28;20057;-76
2022/05/14 04:18:51;;;;;;;9.43;6.90;;;;;;;13.34;94.94;93116.91;5067453;28;20518;-76
2022/05/14 04:21:19;;;;;;;11.30;6.90;;;;;;;13.30;96.00;93110.66;5067576;28;20040;-76
2022/05/14 04:23:46;;;;;;;10.68;6.53;;;;;;;13.33;95.50;93120.50;5061633;28;20099;-76
2022/05/14 04:26:13;;;;;;;9.18;6.70;;;;;;;13.35;97.34;93123.66;5054125;28;20059;-76
2022/05/14 04:28:40;;;;;;;11.50;7.82;;;;;;;13.26;95.94;93106.16;5069681;28;20048;-76
2022/05/14 04:31:08;;;;;;;13.30;7.10;;;;;;;13.45;97.08;93127.41;5068620;28;20040;-77
2022/05/14 04:33:35;;;;;;;13.95;7.40;;;;;;;13.48;95.50;93130.34;5049961;28;20761;-77
2022/05/14 04:36:02;;;;;;;15.30;7.40;;;;;;;13.52;95.94;93124.75;5058632;28;20045;-77
2022/05/14 04:38:29;;;;;;;11.00;7.57;;;;;;;13.54;95.83;93122.69;5069611;28;20055;-76
2022/05/14 04:40:55;;;;;;;11.73;8.10;;;;;;;13.59;98.02;93118.44;5069848;28;20752;-77
2022/05/14 04:43:23;;;;;;;11.07;6.93;;;;;;;13.64;95.57;93117.72;5064332;28;20037;-77
2022/05/14 04:45:50;;;;;;;9.77;6.88;;;;;;;13.75;95.04;93129.03;5049907;28;20053;-77
2022/05/14 04:48:18;;;;;;;9.18;7.18;;;;;;;13.74;95.45;93115.34;5059034;28;20063;-77
2022/05/14 04:50:46;;;;;;;11.98;8.18;;;;;;;13.97;94.90;93136.09;5069921;28;20412;-77
2022/05/14 04:53:13;;;;;;;11.40;7.32;;;;;;;14.12;93.79;93130.44;5069755;28;20052;-76
2022/05/14 04:55:40;;;;;;;11.82;6.80;;;;;;;14.27;94.23;93141.00;5069724;28;20403;-77
2022/05/14 04:58:08;;;;;;;10.77;7.35;;;;;;;14.43;92.72;93144.63;5069660;28;20053;-76
2022/05/14 05:00:35;;;;;;;13.65;7.90;;;;;;;14.56;92.97;93135.78;5069381;28;20052;-76
2022/05/14 05:03:16;;;;;;;11.43;7.30;;;;;;;14.75;92.60;93139.94;5069595;28;20048;-76
2022/05/14 05:05:45;;;;;;;13.70;7.90;;;;;;;14.92;91.79;93150.25;5069522;28;20399;-76
2022/05/14 05:08:12;;;;;;;13.10;8.07;;;;;;;14.86;89.82;93120.19;5069401;28;20135;-76
2022/05/14 05:10:39;;;;;;;13.55;8.88;;;;;;;15.19;89.13;93140.00;5069332;28;20127;-76
2022/05/14 05:13:10;;;;;;;13.23;8.43;;;;;;;15.26;87.88;93134.66;5069430;28;20064;-76
2022/05/14 05:15:37;;;;;;;14.93;9.07;;;;;;;15.39;89.75;93143.88;5069086;28;20052;-76
2022/05/14 05:18:05;;;;;;;12.48;8.48;;;;;;;15.50;90.70;93139.56;5069476;28;20056;-76
2022/05/14 05:20:31;;;;;;;15.45;8.30;;;;;;;15.74;89.07;93141.94;5069304;28;20041;-77
2022/05/14 05:23:00;;;;;;;10.18;7.95;;;;;;;15.74;93.42;93144.50;5069315;28;20079;-77
2022/05/14 05:25:27;;;;;;;12.68;7.32;;;;;;;15.89;87.18;93142.06;5069177;28;20049;-77
2022/05/14 05:27:54;;;;;;;9.70;7.32;;;;;;;15.81;92.09;93145.09;5069087;28;20488;-76
2022/05/14 05:30:21;;;;;;;10.02;7.38;;;;;;;16.01;88.27;93136.78;5069423;28;20059;-77
2022/05/14 05:32:48;;;;;;;9.27;7.45;;;;;;;16.34;86.46;93136.78;5069003;28;20060;-77
2022/05/14 05:35:15;;;;;;;13.02;7.57;;;;;;;16.51;88.70;93133.28;5069306;28;20090;-77
2022/05/14 05:37:42;;;;;;;11.18;7.43;;;;;;;16.56;86.96;93141.09;5069820;28;20056;-77
2022/05/14 05:40:11;;;;;;;10.63;7.70;;;;;;;16.24;90.21;93140.06;5073026;28;20048;-77
2022/05/14 05:42:38;;;;;;;9.50;7.47;;;;;;;16.33;89.75;93144.81;5073084;28;20435;-77
2022/05/14 05:45:06;;;;;;;8.07;7.20;;;;;;;16.45;86.65;93153.22;5073090;28;20055;-77
2022/05/14 05:47:33;;;;;;;11.15;7.38;;;;;;;16.19;91.51;93145.22;5073201;28;20045;-77
2022/05/14 05:49:59;;;;;;;12.10;7.32;;;;;;;16.27;87.12;93138.81;5072635;28;20048;-77
2022/05/14 05:52:26;;;;;;;10.95;7.88;;;;;;;16.24;92.27;93140.06;5073329;28;20416;-76
2022/05/14 05:57:41;;;;;;;15.55;8.57;;;;;;;16.50;90.30;93155.06;5072585;28;20051;-77
2022/05/14 06:00:11;;;;;;;13.57;8.65;;;;;;;16.24;92.72;93153.03;5072618;28;20048;-76
2022/05/14 06:02:38;;;;;;;16.08;7.93;;;;;;;16.32;94.15;93159.59;5072378;28;20052;-77
2022/05/14 06:05:06;;;;;;;16.77;8.85;;;;;;;16.32;94.13;93158.78;5072358;28;20056;-77
2022/05/14 06:07:33;;;;;;;15.05;8.35;;;;;;;16.35;90.54;93159.09;5072762;28;20040;-76
2022/05/14 06:10:01;;;;;;;16.15;9.85;;;;;;;16.54;89.99;93143.94;5072894;28;20056;-77
2022/05/14 06:12:28;;;;;;;20.20;10.77;;;;;;;16.76;91.15;93153.41;5064422;28;20049;-77
2022/05/14 06:14:56;;;;;;;21.55;10.93;;;;;;;16.81;87.40;93143.09;5052496;28;20053;-77
2022/05/14 06:17:23;;;;;;;17.00;9.93;;;;;;;17.02;87.95;93158.78;5056086;28;20052;-77
2022/05/14 06:19:50;;;;;;;20.20;10.70;;;;;;;17.21;85.96;93159.19;5072523;28;20060;-77
2022/05/14 06:22:17;;;;;;;23.52;11.25;;;;;;;17.44;83.63;93159.78;5072005;28;20509;-76
2022/05/14 06:24:43;;;;;;;20.25;10.25;;;;;;;17.62;82.85;93168.97;5072429;28;20053;-77
2022/05/14 06:27:10;;;;;;;21.60;10.93;;;;;;;17.89;80.14;93162.03;5072306;28;20070;-77
2022/05/14 06:29:37;;;;;;;20.25;11.00;;;;;;;18.10;78.12;93157.66;5071907;28;20053;-77
2022/05/14 06:32:06;;;;;;;20.23;11.13;;;;;;;18.30;78.44;93143.16;5072402;28;20045;-77
2022/05/14 06:34:33;;;;;;;22.98;11.90;;;;;;;18.43;76.83;93128.84;5072026;28;20064;-77
2022/05/14 06:37:00;;;;;;;21.77;11.57;;;;;;;19.03;75.25;93162.09;5072381;28;20044;-77
2022/05/14 06:39:27;;;;;;;27.75;13.45;;;;;;;19.33;76.70;93159.69;5072123;28;20048;-77
2022/05/14 06:41:54;;;;;;;32.53;14.88;;;;;;;19.49;74.43;93160.44;5071934;28;20063;-77
2022/05/14 06:44:21;;;;;;;32.45;14.13;;;;;;;19.87;74.11;93165.97;5071847;28;20049;-77
2022/05/14 06:46:48;;;;;;;32.17;14.95;;;;;;;20.03;72.89;93134.66;5071714;28;20058;-78
2022/05/14 06:49:16;;;;;;;27.85;11.60;;;;;;;20.62;71.35;93171.28;5071073;28;20049;-77
2022/05/14 06:51:43;;;;;;;17.05;9.68;;;;;;;20.89;69.34;93167.44;5071688;28;20152;-78
2022/05/14 06:54:11;;;;;;;20.00;8.65;;;;;;;21.21;66.80;93162.69;5072607;28;20123;-79
2022/05/14 06:56:41;;;;;;;15.18;8.35;;;;;;;21.66;66.05;93159.84;5072149;28;20059;-79
2022/05/14 06:59:09;;;;;;;11.85;7.13;;;;;;;21.99;61.66;93159.97;5071871;28;20137;-79
2022/05/14 07:01:39;;;;;;;11.43;7.90;;;;;;;22.59;60.00;93163.06;5071782;28;20052;-79
2022/05/14 07:06:55;;;;;;;9.85;6.10;;;;;;;22.55;57.08;93152.38;5071566;28;20125;-78
2022/05/14 07:09:26;;;;;;;9.88;5.63;;;;;;;21.97;58.54;93156.88;5071889;28;20614;-77
2022/05/14 07:11:56;;;;;;;9.73;6.15;;;;;;;22.38;60.64;93157.34;5068097;28;20053;-77
2022/05/14 07:14:24;;;;;;;8.70;5.43;;;;;;;22.44;58.46;93164.06;5051693;28;20542;-78
2022/05/14 07:16:53;;;;;;;9.07;6.18;;;;;;;22.43;59.48;93129.28;5051457;28;20061;-82
2022/05/14 07:19:20;;;;;;;9.20;6.43;;;;;;;22.93;58.43;93169.88;5051281;28;20053;-78
2022/05/14 07:21:49;;;;;;;9.18;6.45;;;;;;;23.28;55.84;93163.50;5051551;28;20053;-78
2022/05/14 07:24:20;;;;;;;9.32;5.97;;;;;;;23.50;55.75;93154.97;5051046;28;20056;-78
2022/05/14 07:26:49;;;;;;;12.68;7.07;;;;;;;23.74;54.48;93165.25;5058907;28;20041;-78
2022/05/14 07:29:18;;;;;;;10.02;6.93;;;;;;;23.99;54.02;93165.03;5070964;28;20079;-76
2022/05/14 07:31:45;;;;;;;12.75;7.20;;;;;;;24.00;53.87;93169.19;5070932;28;20045;-77
2022/05/14 07:34:12;;;;;;;10.15;6.35;;;;;;;24.23;52.37;93164.81;5070759;28;20059;-78
2022/05/14 07:36:44;;;;;;;11.23;6.45;;;;;;;24.66;51.17;93168.03;5068063;28;20416;-79
2022/05/14 07:39:12;;;;;;;12.15;5.60;;;;;;;23.93;51.45;93163.59;5068932;28;20492;-77
2022/05/14 07:41:45;;;;;;;9.82;5.72;;;;;;;24.39;50.48;93174.97;5070976;28;20048;-77
2022/05/14 07:44:16;;;;;;;11.43;6.35;;;;;;;25.05;50.83;93168.44;5070992;28;20413;-77
2022/05/14 07:46:46;;;;;;;10.13;6.40;;;;;;;25.59;49.27;93170.22;5070940;28;20055;-77
2022/05/14 07:49:15;;;;;;;13.23;6.57;;;;;;;25.78;47.98;93163.94;5070616;28;20048;-78
2022/05/14 07:51:42;;;;;;;10.73;6.03;;;;;;;25.99;48.03;93166.75;5070518;28;20052;-77
2022/05/14 07:54:09;;;;;;;8.40;6.00;;;;;;;25.17;47.59;93166.00;5070815;28;20073;-77
2022/05/14 07:56:38;;;;;;;9.40;5.68;;;;;;;25.63;48.07;93173.78;5070259;28;20048;-77
2022/05/14 07:59:06;;;;;;;10.32;6.65;;;;;;;25.38;51.02;93178.63;5070295;28;20523;-79
2022/05/14 08:01:33;;;;;;;8.65;5.90;;;;;;;25.17;49.62;93173.91;5069277;28;20048;-77
2022/05/14 08:04:00;;;;;;;7.88;5.65;;;;;;;24.88;48.68;93172.53;5070417;28;20044;-77
2022/05/14 08:06:27;;;;;;;11.52;6.75;;;;;;;25.44;49.22;93172.16;5070349;28;20045;-77
2022/05/14 08:08:55;;;;;;;14.35;6.65;;;;;;;25.08;49.33;93173.06;5070526;28;20091;-77
2022/05/14 08:11:22;;;;;;;11.07;5.55;;;;;;;25.56;49.92;93176.09;5070519;28;20118;-77
2022/05/14 08:13:50;;;;;;;8.18;5.53;;;;;;;26.03;48.68;93165.03;5070370;28;20060;-77
2022/05/14 08:16:19;;;;;;;9.02;5.63;;;;;;;26.40;47.55;93167.41;5070091;28;20156;-77
2022/05/14 08:18:45;;;;;;;9.75;5.85;;;;;;;26.35;48.82;93168.34;5069794;28;20048;-77
2022/05/14 08:26:41;;;;;;;8.80;5.00;;;;;;;25.53;48.17;93171.41;5070039;28;20827;-76
2022/05/14 08:29:08;;;;;;;9.88;5.70;;;;;;;24.77;51.47;93164.06;5069767;28;20281;-76
2022/05/14 08:31:36;;;;;;;9.32;5.30;;;;;;;25.01;51.33;93165.66;5070023;28;20052;-76
2022/05/14 08:34:03;;;;;;;8.50;5.35;;;;;;;25.33;50.16;93169.00;5069615;28;20044;-76
2022/05/14 08:36:30;;;;;;;8.27;5.72;;;;;;;25.12;50.68;93166.16;5069977;28;20071;-76
2022/05/14 08:38:57;;;;;;;6.43;4.75;;;;;;;25.15;49.83;93154.25;5069335;28;20053;-76
2022/05/14 08:41:24;;;;;;;6.22;4.57;;;;;;;24.76;49.50;93161.78;5069844;28;20075;-76
2022/05/14 08:43:55;;;;;;;8.80;5.57;;;;;;;24.57;53.50;93160.09;5069583;28;20040;-76
2022/05/14 08:46:24;;;;;;;5.95;4.70;;;;;;;25.33;51.70;93155.09;5069425;28;20045;-76
2022/05/14 08:48:57;;;;;;;7.53;5.25;;;;;;;25.49;47.64;93143.09;5069427;28;20492;-76
2022/05/14 08:51:28;;;;;;;6.72;5.03;;;;;;;24.35;51.79;93163.50;5069790;28;20048;-76
2022/05/14 08:53:55;;;;;;;7.28;4.85;;;;;;;25.26;51.41;93154.78;5069349;28;20507;-76
2022/05/14 08:56:31;;;;;;;7.45;4.78;;;;;;;25.86;48.38;93145.53;5069483;28;20048;-76
2022/05/14 08:59:09;;;;;;;7.68;4.78;;;;;;;26.04;45.68;93118.44;5069500;28;20064;-76
2022/05/14 09:01:38;;;;;;;6.18;4.00;;;;;;;26.66;45.83;93154.22;5069706;28;20048;-76
2022/05/14 09:04:08;;;;;;;7.50;5.05;;;;;;;26.53;45.46;93139.38;5069956;28;20141;-76
2022/05/14 09:06:36;;;;;;;6.32;4.05;;;;;;;26.18;48.44;93131.44;5063459;28;20062;-76
2022/05/14 09:09:03;;;;;;;7.30;4.57;;;;;;;25.62;49.68;93130.16;5057938;28;20064;-76
2022/05/14 09:11:40;;;;;;;7.85;4.95;;;;;;;26.44;48.35;93146.50;5069069;28;20052;-76
2022/05/14 09:14:18;;;;;;;7.75;4.45;;;;;;;26.59;45.78;93140.75;5068718;28;20048;-77
2022/05/14 09:16:45;;;;;;;5.97;4.88;;;;;;;26.14;47.03;93147.88;5069287;28;20061;-77
2022/05/14 09:19:18;;;;;;;8.18;4.82;;;;;;;25.21;49.94;93161.72;5069252;28;20048;-78
2022/05/14 09:21:51;;;;;;;6.45;4.88;;;;;;;24.27;53.09;93162.34;5069046;28;20058;-77
2022/05/14 09:24:24;;;;;;;9.68;4.47;;;;;;;23.91;55.07;93158.63;5069133;28;20121;-77
2022/05/14 09:26:52;;;;;;;7.95;4.53;;;;;;;23.71;56.80;93149.34;5056113;28;20048;-77
2022/05/14 09:29:26;;;;;;;7.38;4.78;;;;;;;24.16;55.61;93148.66;5069155;28;20060;-76
2022/05/14 09:31:54;;;;;;;6.40;5.15;;;;;;;23.62;57.55;93149.25;5069475;28;20045;-77
2022/05/14 09:34:24;;;;;;;5.82;4.70;;;;;;;23.47;60.00;93129.38;5068828;28;20496;-78
2022/05/14 09:36:52;;;;;;;6.50;4.88;;;;;;;23.43;58.94;93146.72;5059453;28;20045;-77
2022/05/14 09:39:22;;;;;;;8.98;4.97;;;;;;;23.38;59.35;93136.34;5049215;28;20071;-78
2022/05/14 09:41:51;;;;;;;6.65;5.15;;;;;;;23.65;59.82;93138.16;5065889;28;20063;-78
2022/05/14 09:44:24;;;;;;;7.68;5.25;;;;;;;23.79;58.69;93140.00;5055426;28;20047;-77
2022/05/14 09:46:53;;;;;;;6.40;4.60;;;;;;;23.87;57.88;93141.91;5049083;28;20045;-77
2022/05/14 09:49:24;;;;;;;7.88;4.82;;;;;;;23.53;60.24;93143.13;5057727;28;20413;-76
2022/05/14 09:51:55;;;;;;;5.80;4.05;;;;;;;22.77;60.36;93148.38;5067778;28;20044;-76
2022/05/14 09:54:27;;;;;;;6.57;4.72;;;;;;;22.68;62.25;93142.25;5068813;28;20048;-77
2022/05/14 09:57:30;;;;;;;6.47;4.43;;;;;;;22.32;64.09;93140.97;5068862;28;20051;-78
2022/05/14 10:00:13;;;;;;;6.53;4.05;;;;;;;22.06;64.52;93151.78;5068175;28;20055;-77
2022/05/14 10:03:08;;;;;;;7.03;4.78;;;;;;;21.91;65.78;93146.75;5068196;28;20048;-77
2022/05/14 10:05:52;;;;;;;6.90;4.55;;;;;;;21.74;67.27;93151.41;5065213;28;20743;-77
2022/05/14 10:08:35;;;;;;;6.03;4.15;;;;;;;21.91;66.05;93160.63;5053653;28;20052;-77
2022/05/14 10:11:10;;;;;;;5.50;4.38;;;;;;;21.72;64.11;93155.38;5067798;28;20056;-77
2022/05/14 10:13:46;;;;;;;7.15;4.25;;;;;;;21.50;65.20;93140.94;5067639;28;20048;-77
2022/05/14 10:16:23;;;;;;;7.28;4.32;;;;;;;21.63;66.65;93149.94;5068050;28;20053;-77
2022/05/14 10:19:21;;;;;;;5.93;4.10;;;;;;;21.79;67.42;93147.19;5059734;28;20083;-77
2022/05/14 10:22:01;;;;;;;5.28;3.88;;;;;;;21.87;66.50;93159.63;5066488;28;20051;-78
2022/05/14 10:28:02;;;;;;;7.85;4.13;;;;;;;22.09;65.15;93148.59;5009004;28;20045;-77
2022/05/14 10:30:42;;;;;;;5.15;3.47;;;;;;;22.21;64.48;93156.00;5007917;28;20466;-77
2022/05/14 10:33:17;;;;;;;6.60;4.00;;;;;;;22.07;62.23;93153.31;5042713;28;20407;-77
2022/05/14 10:35:55;;;;;;;5.15;4.00;;;;;;;22.39;62.41;93151.81;5060715;28;20059;-77
2022/05/14 10:38:27;;;;;;;5.22;4.18;;;;;;;22.36;62.03;93144.53;5070182;28;20100;-77
2022/05/14 10:41:00;;;;;;;4.97;3.65;;;;;;;22.43;62.58;93146.78;5070485;28;20045;-77
2022/05/14 10:43:39;;;;;;;7.20;4.70;;;;;;;22.38;61.91;93147.66;5070370;28;20151;-76
2022/05/14 10:46:09;;;;;;;7.38;3.50;;;;;;;22.34;63.28;93145.88;5056868;28;20076;-77
2022/05/14 10:48:47;;;;;;;5.22;3.90;;;;;;;22.37;64.70;93148.72;5070246;28;20051;-77
2022/05/14 10:51:22;;;;;;;8.45;4.75;;;;;;;22.36;63.17;93149.00;5070327;28;20044;-77
2022/05/14 10:53:50;;;;;;;5.45;4.30;;;;;;;22.47;64.95;93128.69;5070342;28;20048;-77
2022/05/14 10:56:24;;;;;;;5.45;3.97;;;;;;;22.67;62.52;93143.31;5069910;28;20040;-77
2022/05/14 10:59:05;;;;;;;4.97;3.70;;;;;;;23.07;62.14;93133.22;5069677;28;20048;-77
2022/05/14 11:01:36;;;;;;;6.55;4.90;;;;;;;23.12;59.62;93119.25;5070142;28;20076;-77
2022/05/14 11:04:15;;;;;;;6.78;4.93;;;;;;;23.33;62.15;93124.13;5069718;28;20060;-77
2022/05/14 11:06:54;;;;;;;11.70;4.45;;;;;;;23.08;62.87;93134.75;5069662;28;20067;-77
2022/05/14 11:09:25;;;;;;;5.28;3.97;;;;;;;22.61;62.29;93141.84;5070003;28;20094;-77
2022/05/14 11:11:59;;;;;;;6.95;4.65;;;;;;;22.63;63.38;93144.97;5069750;28;20044;-76
2022/05/14 11:14:37;;;;;;;7.63;4.90;;;;;;;22.68;62.13;93137.03;5056860;28;20053;-77
2022/05/14 11:17:16;;;;;;;6.35;4.72;;;;;;;22.80;62.70;93139.97;5069677;28;20056;-77
2022/05/14 11:19:43;;;;;;;5.50;4.38;;;;;;;22.96;61.60;93153.56;5069597;28;20421;-78
2022/05/14 11:22:21;;;;;;;6.10;4.43;;;;;;;22.79;62.11;93141.03;5069420;28;20060;-78
2022/05/14 11:24:50;;;;;;;9.52;4.55;;;;;;;22.99;63.21;93146.97;5069901;28;20056;-77
2022/05/14 11:27:28;;;;;;;5.07;3.83;;;;;;;22.83;61.80;93141.22;5069532;28;20056;-78
2022/05/14 11:30:01;;;;;;;6.35;4.78;;;;;;;23.34;61.65;93141.41;5069666;28;20055;-77
2022/05/14 11:32:41;;;;;;;5.82;4.07;;;;;;;23.96;59.93;93147.25;5069116;28;20574;-78
2022/05/14 11:35:08;;;;;;;6.32;4.35;;;;;;;24.61;58.43;93131.38;5068961;28;20530;-78
2022/05/14 11:37:44;;;;;;;5.65;3.75;;;;;;;25.39;55.88;93124.19;5069357;28;20048;-78
2022/05/14 11:40:28;;;;;;;5.30;4.10;;;;;;;26.04;49.25;93121.06;5064562;28;20045;-78
2022/05/14 11:43:11;;;;;;;6.53;3.47;;;;;;;26.71;49.49;93118.25;5048780;28;20056;-78
2022/05/14 11:45:42;;;;;;;6.60;4.07;;;;;;;27.07;47.31;93115.22;5064968;28;20048;-78
2022/05/14 11:48:16;;;;;;;6.05;3.60;;;;;;;27.15;42.48;93104.94;5054323;28;20056;-77
2022/05/14 11:50:51;;;;;;;4.97;3.25;;;;;;;26.63;42.05;93122.44;5068570;28;20611;-76
2022/05/14 11:53:29;;;;;;;5.67;3.67;;;;;;;26.04;46.26;93123.69;5068425;28;20063;-78
2022/05/14 11:56:02;;;;;;;5.70;3.47;;;;;;;24.29;55.36;93155.75;5065176;28;20044;-79
2022/05/14 11:58:38;;;;;;;4.80;3.15;;;;;;;22.07;62.34;93148.09;5067071;28;20055;-79